Time;durP1;ratioP1;P1;durP2;ratioP2;P2;SDS_P1;SDS_P2;PMS_P1;PMS_P2;Temp;Humidity;BMP_temperature;BMP_pressure;BME280_temperature;BME280_humidity;BME280_pressure;Samples;Min_cycle;Max_cycle;Signal;HPM_P1;HPM_P2
2021/11/27 00:21:07;;;;;;;;;;;;;;;;;;;;;
2021/11/27 00:34:19;;;;;;;16.92;15.15;;;6.40;96.30;;;;;;6138892;23;20021;-93
2021/11/27 00:40:37;;;;;;;18.05;15.48;;;6.40;96.30;;;;;;6100635;23;20053;-94
2021/11/27 00:44:00;;;;;;;;;;;;;;;;;;;;;
2021/11/27 00:47:15;;;;;;;;;;;;;;;;;;;;;
2021/11/27 00:50:31;;;;;;;18.13;16.02;;;6.40;96.30;;;;;;6096069;23;20086;-95
2021/11/27 00:53:46;;;;;;;;;;;;;;;;;;;;;
2021/11/27 00:56:58;;;;;;;;;;;;;;;;;;;;;
2021/11/27 01:00:15;;;;;;;;;;;;;;;;;;;;;
2021/11/27 01:07:05;;;;;;;;;;;;;;;;;;;;;
2021/11/27 01:10:41;;;;;;;;;;;;;;;;;;;;;
2021/11/27 01:30:04;;;;;;;;;;;;;;;;;;;;;
2021/11/27 01:33:39;;;;;;;;;;;;;;;;;;;;;
2021/11/27 01:36:44;;;;;;;10.70;6.70;;;6.30;96.20;;;;;;6120036;23;20010;-92
2021/11/27 01:43:11;;;;;;;;;;;;;;;;;;;;;
2021/11/27 02:07:21;;;;;;;;;;;;;;;;;;;;;
2021/11/27 02:14:02;;;;;;;;;;;;;;;;;;;;;
2021/11/27 02:16:57;;;;;;;;;;;;;;;;;;;;;
2021/11/27 02:23:42;;;;;;;;;;;;;;;;;;;;;
2021/11/27 02:34:02;;;;;;;;;;;;;;;;;;;;;
2021/11/27 02:37:16;;;;;;;;;;;;;;;;;;;;;
2021/11/27 02:50:26;;;;;;;;;;;;;;;;;;;;;
2021/11/27 02:56:52;;;;;;;;;;;;;;;;;;;;;
2021/11/27 03:03:03;;;;;;;2.67;0.68;;;5.40;95.20;;;;;;6220357;23;20012;-93
2021/11/27 03:09:21;;;;;;;;;;;;;;;;;;;;;
2021/11/27 03:25:25;;;;;;;1.52;0.80;;;5.20;95.10;;;;;;6186371;23;20322;-92
2021/11/27 03:35:23;;;;;;;;;;;;;;;;;;;;;
2021/11/27 03:38:23;;;;;;;1.02;0.90;;;5.10;95.00;;;;;;6190034;23;20005;-92
2021/11/27 03:52:15;;;;;;;1.98;0.80;;;4.90;94.80;;;;;;6135720;23;20009;-92
2021/11/27 03:55:12;;;;;;;1.75;0.60;;;4.90;94.90;;;;;;6217037;23;20021;-92
2021/11/27 04:08:59;;;;;;;;;;;;;;;;;;;;;
2021/11/27 04:18:23;;;;;;;;;;;;;;;;;;;;;
2021/11/27 04:21:43;;;;;;;1.65;0.30;;;4.70;94.90;;;;;;6217221;23;20060;-93
2021/11/27 04:28:59;;;;;;;;;;;;;;;;;;;;;
2021/11/27 04:38:48;;;;;;;;;;;;;;;;;;;;;
2021/11/27 04:41:39;;;;;;;;;;;;;;;;;;;;;
2021/11/27 05:05:25;;;;;;;;;;;;;;;;;;;;;
2021/11/27 05:08:48;;;;;;;;;;;;;;;;;;;;;
2021/11/27 05:19:04;;;;;;;;;;;;;;;;;;;;;
2021/11/27 05:22:18;;;;;;;;;;;;;;;;;;;;;
2021/11/27 05:25:34;;;;;;;2.75;1.08;;;4.10;94.80;;;;;;6217360;23;20079;-93
2021/11/27 05:28:46;;;;;;;;;;;;;;;;;;;;;
2021/11/27 05:32:10;;;;;;;;;;;;;;;;;;;;;
2021/11/27 05:35:35;;;;;;;;;;;;;;;;;;;;;
2021/11/27 05:38:58;;;;;;;;;;;;;;;;;;;;;
2021/11/27 05:45:48;;;;;;;;;;;;;;;;;;;;;
2021/11/27 05:48:47;;;;;;;2.60;2.38;;;3.90;94.80;;;;;;6217939;23;20076;-92
2021/11/27 05:55:39;;;;;;;;;;;;;;;;;;;;;
2021/11/27 06:02:16;;;;;;;;;;;;;;;;;;;;;
2021/11/27 06:05:29;;;;;;;;;;;;;;;;;;;;;
2021/11/27 06:08:59;;;;;;;;;;;;;;;;;;;;;
2021/11/27 06:22:05;;;;;;;;;;;;;;;;;;;;;
2021/11/27 06:25:56;;;;;;;;;;;;;;;;;;;;;
2021/11/27 06:28:33;;;;;;;;;;;;;;;;;;;;;
2021/11/27 06:31:40;;;;;;;;;;;;;;;;;;;;;
2021/11/27 06:34:30;;;;;;;2.97;2.67;;;3.60;94.90;;;;;;6130106;23;20092;-92
2021/11/27 06:37:22;;;;;;;3.63;2.80;;;3.60;94.90;;;;;;6131806;23;20008;-92
2021/11/27 06:40:21;;;;;;;;;;;;;;;;;;;;;
2021/11/27 06:53:15;;;;;;;;;;;;;;;;;;;;;
2021/11/27 06:56:33;;;;;;;;;;;;;;;;;;;;;
2021/11/27 07:03:04;;;;;;;2.35;1.92;;;3.50;94.90;;;;;;6248739;23;20008;-91
2021/11/27 07:06:03;;;;;;;;;;;;;;;;;;;;;
2021/11/27 07:23:00;;;;;;;2.00;1.35;;;3.50;94.80;;;;;;6051817;23;20012;-96
2021/11/27 08:24:15;;;;;;;5.80;3.65;;;3.50;95.10;;;;;;6159607;23;20359;-91
2021/11/27 08:27:03;;;;;;;6.07;4.00;;;3.50;95.10;;;;;;6159782;23;20040;-92
2021/11/27 08:30:15;;;;;;;;;;;;;;;;;;;;;
2021/11/27 08:33:08;;;;;;;5.43;3.38;;;3.50;95.10;;;;;;6159071;23;20160;-89
2021/11/27 08:35:47;;;;;;;4.90;3.60;;;3.50;95.10;;;;;;6159848;23;20013;-89
2021/11/27 08:42:27;;;;;;;6.50;3.10;;;3.50;95.20;;;;;;6170910;23;20020;-92
2021/11/27 08:45:52;;;;;;;;;;;;;;;;;;;;;
2021/11/27 08:48:28;;;;;;;;;;;;;;;;;;;;;
2021/11/27 08:51:32;;;;;;;6.50;3.08;;;3.60;95.10;;;;;;6184288;23;20017;-92
2021/11/27 08:57:35;;;;;;;3.70;3.00;;;3.60;95.10;;;;;;6160850;23;20017;-88
2021/11/27 09:00:10;;;;;;;3.53;2.83;;;3.60;95.10;;;;;;6158589;23;20005;-88
2021/11/27 09:02:56;;;;;;;3.78;2.70;;;3.60;95.10;;;;;;6158138;23;20064;-88
2021/11/27 09:05:34;;;;;;;5.93;3.45;;;3.60;95.10;;;;;;6157877;23;20052;-87
2021/11/27 09:08:05;;;;;;;4.65;3.40;;;3.60;95.10;;;;;;6157045;23;20008;-88
2021/11/27 09:10:53;;;;;;;;;;;;;;;;;;;;;
2021/11/27 09:13:43;;;;;;;;;;;;;;;;;;;;;
2021/11/27 09:16:51;;;;;;;3.70;2.65;;;3.70;95.00;;;;;;6158430;23;20081;-90
2021/11/27 09:22:53;;;;;;;;;;;;;;;;;;;;;
2021/11/27 09:25:49;;;;;;;;;;;;;;;;;;;;;
2021/11/27 09:28:59;;;;;;;3.65;2.30;;;3.70;95.00;;;;;;6152141;23;20080;-88
2021/11/27 09:35:10;;;;;;;3.10;2.33;;;3.60;95.00;;;;;;6113759;23;20017;-88
2021/11/27 09:38:07;;;;;;;3.58;1.92;;;3.70;95.00;;;;;;6133545;23;20029;-89
2021/11/27 09:41:18;;;;;;;3.10;2.17;;;3.70;95.00;;;;;;6134874;23;20064;-89
2021/11/27 09:43:49;;;;;;;1.80;1.52;;;3.70;95.00;;;;;;6160081;23;20001;-89
2021/11/27 09:49:45;;;;;;;1.67;1.25;;;3.70;95.10;;;;;;6137785;23;20060;-90
2021/11/27 09:52:34;;;;;;;;;;;;;;;;;;;;;
2021/11/27 09:55:20;;;;;;;;;;;;;;;;;;;;;
2021/11/27 09:58:28;;;;;;;;;;;;;;;;;;;;;
2021/11/27 10:01:03;;;;;;;1.58;0.93;;;3.70;95.10;;;;;;6135281;23;20084;-90
2021/11/27 10:03:49;;;;;;;;;;;;;;;;;;;;;
2021/11/27 10:07:05;;;;;;;;;;;;;;;;;;;;;
2021/11/27 10:09:43;;;;;;;4.15;1.38;;;3.90;95.10;;;;;;6147093;23;20072;-88
2021/11/27 10:12:29;;;;;;;3.65;1.67;;;3.90;95.10;;;;;;6137565;23;20005;-87
2021/11/27 10:14:55;;;;;;;3.05;1.70;;;3.90;95.20;;;;;;6178804;23;19994;-91
2021/11/27 10:17:33;;;;;;;3.42;2.08;;;4.00;95.20;;;;;;6145277;23;20303;-91
2021/11/27 10:20:11;;;;;;;4.13;2.10;;;4.00;95.10;;;;;;6178317;23;19992;-88
2021/11/27 10:22:59;;;;;;;;;;;;;;;;;;;;;
2021/11/27 10:25:42;;;;;;;3.92;2.97;;;4.10;95.20;;;;;;6170207;23;20021;-86
2021/11/27 10:28:15;;;;;;;5.35;3.10;;;4.10;95.20;;;;;;6158602;23;20065;-90
2021/11/27 10:31:02;;;;;;;;;;;;;;;;;;;;;
2021/11/27 10:33:39;;;;;;;5.82;3.45;;;4.20;95.30;;;;;;6158344;23;20085;-89
2021/11/27 10:36:48;;;;;;;7.10;4.32;;;4.20;95.40;;;;;;6132588;23;20068;-89
2021/11/27 10:39:44;;;;;;;6.95;4.53;;;4.20;95.40;;;;;;6156108;23;20016;-88
2021/11/27 10:42:29;;;;;;;;;;;;;;;;;;;;;
2021/11/27 10:45:14;;;;;;;9.30;5.30;;;4.30;95.40;;;;;;6159476;23;20080;-89
2021/11/27 10:47:45;;;;;;;7.75;5.30;;;4.30;95.40;;;;;;6157853;23;20429;-89
2021/11/27 10:50:18;;;;;;;8.88;5.72;;;4.30;95.40;;;;;;6133341;23;20002;-89
2021/11/27 10:53:03;;;;;;;15.18;8.65;;;4.30;95.40;;;;;;6132366;23;20018;-90
2021/11/27 10:56:09;;;;;;;12.30;6.97;;;4.40;95.50;;;;;;6133357;23;20013;-91
2021/11/27 10:59:14;;;;;;;11.52;7.63;;;4.40;95.50;;;;;;6157711;23;20074;-89
2021/11/27 11:02:01;;;;;;;9.50;6.70;;;4.40;95.50;;;;;;6073956;23;20006;-89
2021/11/27 11:04:33;;;;;;;11.30;7.00;;;4.40;95.50;;;;;;6098161;23;20102;-91
2021/11/27 11:07:29;;;;;;;13.55;8.10;;;4.50;95.50;;;;;;6121164;23;20084;-90
2021/11/27 11:10:52;;;;;;;14.93;8.13;;;4.50;95.60;;;;;;6160629;23;20001;-88
2021/11/27 11:13:41;;;;;;;;;;;;;;;;;;;;;
2021/11/27 11:16:32;;;;;;;16.35;9.30;;;4.60;95.60;;;;;;6071210;23;20090;-90
2021/11/27 11:19:31;;;;;;;;;;;;;;;;;;;;;
2021/11/27 11:23:04;;;;;;;21.30;12.15;;;4.70;95.70;;;;;;6160086;23;20085;-88
2021/11/27 11:26:28;;;;;;;;;;;;;;;;;;;;;
2021/11/27 11:29:14;;;;;;;22.75;11.82;;;4.90;95.70;;;;;;6023983;23;20030;-90
2021/11/27 11:31:49;;;;;;;21.45;12.38;;;4.90;95.70;;;;;;6133997;23;20013;-93
2021/11/27 11:34:50;;;;;;;24.30;13.80;;;5.00;95.70;;;;;;6129905;23;20101;-89
2021/11/27 11:37:43;;;;;;;23.23;14.30;;;5.00;95.70;;;;;;6108056;23;20092;-90
2021/11/27 11:40:16;;;;;;;26.38;14.43;;;5.10;95.80;;;;;;6133693;23;20005;-88
2021/11/27 11:42:56;;;;;;;;;;;;;;;;;;;;;
2021/11/27 11:46:13;;;;;;;;;;;;;;;;;;;;;
2021/11/27 11:49:35;;;;;;;;;;;;;;;;;;;;;
2021/11/27 11:52:41;;;;;;;42.90;25.88;;;5.40;95.90;;;;;;6183177;23;20095;-90
2021/11/27 11:55:53;;;;;;;34.97;22.23;;;5.40;96.00;;;;;;6112384;23;20017;-92
2021/11/27 11:59:15;;;;;;;33.15;20.77;;;5.40;95.90;;;;;;6219187;23;20043;-92
2021/11/27 12:02:41;;;;;;;33.33;19.75;;;5.50;95.90;;;;;;6217396;23;20039;-91
2021/11/27 12:05:16;;;;;;;34.75;19.67;;;5.60;95.90;;;;;;6217718;23;20001;-91
2021/11/27 12:14:35;;;;;;;;;;;;;;;;;;;;;
2021/11/27 12:17:39;;;;;;;29.00;17.35;;;5.70;95.70;;;;;;6217823;23;20088;-88
2021/11/27 12:20:56;;;;;;;29.67;17.33;;;5.70;95.70;;;;;;6134927;23;20269;-88
2021/11/27 12:23:33;;;;;;;23.95;16.17;;;5.80;95.70;;;;;;6208425;23;20004;-90
2021/11/27 12:29:18;;;;;;;24.23;14.57;;;5.90;95.70;;;;;;6217923;23;20004;-89
2021/11/27 12:32:11;;;;;;;24.77;13.38;;;6.00;95.70;;;;;;6218273;23;20008;-89
2021/11/27 12:34:50;;;;;;;;;;;;;;;;;;;;;
2021/11/27 12:37:28;;;;;;;23.45;11.85;;;6.00;95.60;;;;;;6219311;23;20493;-91
2021/11/27 12:39:57;;;;;;;26.73;11.52;;;6.10;95.50;;;;;;6218693;23;20051;-90
2021/11/27 12:42:33;;;;;;;22.35;11.80;;;6.20;95.50;;;;;;6192648;23;20012;-91
2021/11/27 12:49:01;;;;;;;23.15;10.52;;;6.20;95.50;;;;;;6102252;23;20014;-90
2021/11/27 12:51:38;;;;;;;24.83;14.65;;;6.30;95.60;;;;;;6081610;23;20113;-91
2021/11/27 12:54:18;;;;;;;26.42;14.15;;;6.30;95.50;;;;;;6171584;23;20009;-91
2021/11/27 12:57:17;;;;;;;;;;;;;;;;;;;;;
2021/11/27 13:00:15;;;;;;;18.42;10.27;;;6.40;95.60;;;;;;6219053;23;20075;-89
2021/11/27 13:03:06;;;;;;;20.77;10.93;;;6.50;95.50;;;;;;6218514;23;20496;-90
2021/11/27 13:06:09;;;;;;;17.10;10.48;;;6.50;95.40;;;;;;6217458;23;20082;-88
2021/11/27 13:08:39;;;;;;;21.88;10.40;;;6.50;95.30;;;;;;6214308;23;20095;-89
2021/11/27 13:11:13;;;;;;;20.98;9.70;;;6.60;95.30;;;;;;6219345;23;20000;-90
2021/11/27 13:13:41;;;;;;;15.50;8.48;;;6.50;95.30;;;;;;6235665;23;20021;-88
2021/11/27 13:16:18;;;;;;;16.98;9.05;;;6.60;95.30;;;;;;6242428;23;20012;-89
2021/11/27 13:19:17;;;;;;;;;;;;;;;;;;;;;
2021/11/27 13:21:59;;;;;;;13.98;8.32;;;6.60;95.10;;;;;;6241647;23;20008;-93
2021/11/27 13:25:23;;;;;;;18.45;9.43;;;6.60;95.00;;;;;;6231490;23;20001;-93
2021/11/27 13:28:26;;;;;;;16.67;8.68;;;6.50;95.00;;;;;;6108829;23;20002;-92
2021/11/27 13:34:57;;;;;;;16.63;8.93;;;6.50;94.90;;;;;;6128433;23;20378;-90
2021/11/27 13:37:45;;;;;;;19.10;9.30;;;6.40;94.90;;;;;;6152511;23;20091;-89
2021/11/27 13:40:40;;;;;;;20.15;10.73;;;6.40;94.90;;;;;;6191224;23;20004;-92
2021/11/27 13:44:17;;;;;;;;;;;;;;;;;;;;;
2021/11/27 13:47:13;;;;;;;15.70;8.50;;;6.40;94.80;;;;;;6128456;23;20108;-93
2021/11/27 13:49:49;;;;;;;14.95;8.60;;;6.30;94.80;;;;;;6197404;23;20031;-94
2021/11/27 13:52:33;;;;;;;15.13;7.95;;;6.30;94.70;;;;;;6210410;23;20042;-92
2021/11/27 13:59:16;;;;;;;;;;;;;;;;;;;;;
2021/11/27 14:05:27;;;;;;;15.77;8.40;;;6.20;94.70;;;;;;6038371;23;20010;-91
2021/11/27 14:08:16;;;;;;;15.73;9.02;;;6.20;94.70;;;;;;6073560;23;20348;-92
2021/11/27 14:11:08;;;;;;;14.90;8.20;;;6.20;94.70;;;;;;6072649;23;20030;-91
2021/11/27 14:14:10;;;;;;;15.27;8.48;;;6.10;94.80;;;;;;6098917;23;20034;-90
2021/11/27 14:19:43;;;;;;;;;;;;;;;;;;;;;
2021/11/27 14:22:49;;;;;;;13.40;7.68;;;6.10;94.80;;;;;;6075556;23;20086;-88
2021/11/27 14:25:23;;;;;;;16.25;8.15;;;6.10;94.80;;;;;;6072619;23;20011;-89
2021/11/27 14:28:02;;;;;;;16.90;7.65;;;6.10;94.80;;;;;;6073426;23;20007;-90
2021/11/27 14:30:45;;;;;;;;;;;;;;;;;;;;;
2021/11/27 14:33:50;;;;;;;12.98;7.40;;;6.00;94.80;;;;;;6099251;23;20070;-90
2021/11/27 14:36:50;;;;;;;16.88;8.30;;;6.10;94.80;;;;;;6066265;23;20018;-92
2021/11/27 14:39:24;;;;;;;14.35;7.68;;;6.00;94.70;;;;;;6102096;23;20086;-89
2021/11/27 14:42:01;;;;;;;14.48;7.57;;;6.00;94.70;;;;;;6219307;23;20004;-90
2021/11/27 14:44:33;;;;;;;13.65;6.85;;;6.00;94.70;;;;;;6235030;23;19984;-90
2021/11/27 14:47:04;;;;;;;10.80;6.72;;;6.00;94.70;;;;;;6242465;23;20060;-89
2021/11/27 14:49:49;;;;;;;;;;;;;;;;;;;;;
2021/11/27 14:52:48;;;;;;;14.90;6.97;;;6.00;94.70;;;;;;6236629;23;20008;-90
2021/11/27 14:55:50;;;;;;;12.68;7.38;;;6.00;94.70;;;;;;6219733;23;20028;-90
2021/11/27 14:58:18;;;;;;;26.80;16.52;;;6.00;94.70;;;;;;6178325;23;20011;-91
2021/11/27 15:00:53;;;;;;;23.65;12.95;;;5.90;94.80;;;;;;6194837;23;20013;-91
2021/11/27 15:03:22;;;;;;;17.08;9.40;;;6.00;94.80;;;;;;6219792;23;20007;-90
2021/11/27 15:06:06;;;;;;;17.45;8.60;;;6.00;94.80;;;;;;6220157;23;20001;-89
2021/11/27 15:08:41;;;;;;;13.90;7.05;;;6.00;94.70;;;;;;6222460;23;20055;-91
2021/11/27 15:11:20;;;;;;;;;;;;;;;;;;;;;
2021/11/27 15:14:02;;;;;;;16.42;7.00;;;5.90;94.70;;;;;;6223910;23;20032;-89
2021/11/27 15:17:14;;;;;;;11.48;6.80;;;5.90;94.70;;;;;;6220469;23;20078;-90
2021/11/27 15:19:44;;;;;;;13.05;6.32;;;6.00;94.80;;;;;;6207611;23;20088;-90
2021/11/27 15:22:17;;;;;;;12.32;6.57;;;6.00;94.80;;;;;;6217702;23;20035;-90
2021/11/27 15:24:56;;;;;;;22.73;11.15;;;6.00;94.70;;;;;;6219460;23;20000;-88
2021/11/27 15:27:33;;;;;;;20.67;10.80;;;5.90;94.70;;;;;;6194649;23;20058;-89
2021/11/27 15:30:21;;;;;;;;;;;;;;;;;;;;;
2021/11/27 15:33:07;;;;;;;12.27;7.32;;;5.90;94.70;;;;;;6223214;23;20047;-91
2021/11/27 15:35:36;;;;;;;14.10;7.55;;;5.90;94.80;;;;;;6197525;23;20008;-91
2021/11/27 15:38:20;;;;;;;15.13;6.90;;;5.90;95.10;;;;;;6218880;23;20011;-90
2021/11/27 15:43:49;;;;;;;11.80;6.07;;;5.90;94.90;;;;;;6199421;23;20409;-93
2021/11/27 15:46:23;;;;;;;13.60;6.53;;;5.90;94.90;;;;;;6195471;23;20163;-93
2021/11/27 15:48:52;;;;;;;14.38;6.97;;;5.90;94.90;;;;;;6219776;23;20024;-93
2021/11/27 15:51:22;;;;;;;13.20;7.45;;;5.90;94.90;;;;;;6192849;23;20028;-90
2021/11/27 15:53:50;;;;;;;12.13;6.00;;;5.90;94.90;;;;;;6193457;23;20066;-94
2021/11/27 15:56:27;;;;;;;11.00;6.03;;;5.90;94.90;;;;;;6192944;23;20100;-88
2021/11/27 15:59:10;;;;;;;10.23;6.07;;;5.90;94.90;;;;;;6227438;23;20024;-90
2021/11/27 16:02:08;;;;;;;12.88;6.35;;;5.90;94.90;;;;;;6226104;23;20000;-89
2021/11/27 16:04:44;;;;;;;;;;;;;;;;;;;;;
2021/11/27 16:14:09;;;;;;;;;;;;;;;;;;;;;
2021/11/27 16:19:34;;;;;;;7.32;4.50;;;5.70;94.50;;;;;;6097872;23;19995;-88
2021/11/27 16:25:18;;;;;;;7.70;4.13;;;5.60;94.50;;;;;;6100827;23;20032;-87
2021/11/27 16:27:56;;;;;;;7.40;3.80;;;5.60;94.50;;;;;;6098473;23;20007;-88
2021/11/27 16:30:56;;;;;;;11.38;4.45;;;5.60;94.40;;;;;;6078258;23;20043;-86
2021/11/27 16:33:32;;;;;;;5.80;3.20;;;5.50;94.30;;;;;;6216467;23;20004;-85
2021/11/27 16:36:15;;;;;;;6.22;3.78;;;5.50;94.40;;;;;;6193299;23;20012;-86
2021/11/27 16:38:51;;;;;;;7.80;3.70;;;5.40;94.50;;;;;;6217481;23;20005;-86
2021/11/27 16:41:44;;;;;;;7.40;3.15;;;5.40;94.60;;;;;;6218019;23;20028;-86
2021/11/27 16:44:16;;;;;;;4.93;2.80;;;5.40;94.60;;;;;;6194542;23;20012;-85
2021/11/27 16:46:44;;;;;;;6.05;2.72;;;5.40;94.60;;;;;;6219268;23;20004;-87
2021/11/27 16:49:36;;;;;;;5.07;3.00;;;5.30;94.60;;;;;;6219401;23;20087;-88
2021/11/27 16:52:18;;;;;;;5.70;2.72;;;5.30;94.60;;;;;;6220374;23;20071;-87
2021/11/27 16:54:49;;;;;;;4.88;2.70;;;5.30;94.60;;;;;;6221463;23;20008;-87
2021/11/27 16:57:28;;;;;;;7.13;3.45;;;5.30;94.60;;;;;;6194968;23;20086;-87
2021/11/27 17:00:00;;;;;;;6.05;2.70;;;5.30;94.60;;;;;;6194688;23;20007;-87
2021/11/27 17:02:31;;;;;;;;;;;5.30;94.60;;;;;;6218001;23;20007;-86
2021/11/27 17:05:06;;;;;;;6.65;2.47;;;5.30;94.60;;;;;;6215666;23;19900;-86
2021/11/27 17:07:41;;;;;;;;;;;;;;;;;;;;;
2021/11/27 17:10:21;;;;;;;;;;;;;;;;;;;;;
2021/11/27 17:12:50;;;;;;;4.93;2.33;;;5.20;94.70;;;;;;6216933;23;20394;-87
2021/11/27 17:15:18;;;;;;;5.07;2.55;;;5.20;94.70;;;;;;6215472;23;20008;-88
2021/11/27 17:17:50;;;;;;;3.83;2.83;;;5.20;94.80;;;;;;6216060;23;20000;-88
2021/11/27 17:20:22;;;;;;;3.85;2.55;;;5.30;94.80;;;;;;6215586;23;20005;-88
2021/11/27 17:22:54;;;;;;;4.55;2.15;;;5.30;94.80;;;;;;6216034;23;20437;-88
2021/11/27 17:25:23;;;;;;;4.88;2.10;;;5.30;94.80;;;;;;6217934;23;19996;-88
2021/11/27 17:28:13;;;;;;;3.30;2.17;;;5.20;94.80;;;;;;6216615;23;20004;-89
2021/11/27 17:31:09;;;;;;;4.35;2.03;;;5.20;94.90;;;;;;6191593;23;20112;-88
2021/11/27 17:33:43;;;;;;;3.72;1.70;;;5.20;94.90;;;;;;6202582;23;20051;-88
2021/11/27 17:36:13;;;;;;;3.80;1.98;;;5.20;94.90;;;;;;6217189;23;20001;-89
2021/11/27 17:38:42;;;;;;;4.10;2.30;;;5.30;95.00;;;;;;6192178;23;20451;-87
2021/11/27 17:41:44;;;;;;;4.07;2.20;;;5.20;94.90;;;;;;6217063;23;20003;-89
2021/11/27 17:44:22;;;;;;;4.55;2.55;;;5.20;94.90;;;;;;6233698;23;20000;-88
2021/11/27 17:46:50;;;;;;;4.78;2.50;;;5.20;95.00;;;;;;6242349;23;20004;-87
2021/11/27 17:49:16;;;;;;;3.50;2.60;;;5.20;95.00;;;;;;6242902;23;19992;-89
2021/11/27 17:51:45;;;;;;;3.03;2.30;;;5.20;95.00;;;;;;6240319;23;20030;-89
2021/11/27 17:54:14;;;;;;;7.47;4.68;;;5.20;95.00;;;;;;6221695;23;20009;-87
2021/11/27 17:56:47;;;;;;;7.45;4.30;;;5.20;95.00;;;;;;6191500;23;20016;-89
2021/11/27 17:59:13;;;;;;;6.13;3.95;;;5.20;95.00;;;;;;6217526;23;20004;-87
2021/11/27 18:02:19;;;;;;;;;;;;;;;;;;;;;
2021/11/27 18:04:50;;;;;;;4.25;3.25;;;5.20;95.00;;;;;;6215339;23;20079;-88
2021/11/27 18:07:25;;;;;;;5.47;3.47;;;5.10;95.00;;;;;;6216164;23;20000;-86
2021/11/27 18:10:04;;;;;;;4.72;3.58;;;5.10;95.00;;;;;;6216858;23;20036;-88
2021/11/27 18:12:30;;;;;;;5.80;4.03;;;5.10;95.00;;;;;;6215635;23;20009;-85
2021/11/27 18:14:55;;;;;;;6.20;3.63;;;5.10;95.10;;;;;;6214517;23;20033;-86
2021/11/27 18:18:06;;;;;;;6.60;3.90;;;5.10;95.10;;;;;;6215038;23;20000;-87
2021/11/27 18:20:44;;;;;;;7.53;4.72;;;5.10;95.20;;;;;;6214890;23;19997;-86
2021/11/27 18:23:14;;;;;;;8.32;4.78;;;5.10;95.20;;;;;;6214284;23;20074;-85
2021/11/27 18:28:29;;;;;;;5.90;4.57;;;5.10;95.20;;;;;;6226818;23;20414;-86
2021/11/27 18:31:13;;;;;;;9.10;5.68;;;5.10;95.30;;;;;;6215055;23;20447;-86
2021/11/27 18:33:50;;;;;;;10.90;7.28;;;5.10;95.30;;;;;;6192171;23;20473;-86
2021/11/27 18:39:05;;;;;;;11.30;6.28;;;5.20;95.40;;;;;;6216606;23;20005;-86
2021/11/27 18:41:50;;;;;;;10.75;6.05;;;5.10;95.30;;;;;;6214390;23;20029;-87
2021/11/27 18:44:22;;;;;;;9.30;6.50;;;5.20;95.40;;;;;;6217269;23;20001;-86
2021/11/27 18:47:03;;;;;;;11.10;6.70;;;5.20;95.40;;;;;;6216083;23;20008;-88
2021/11/27 18:49:30;;;;;;;9.40;6.68;;;5.20;95.40;;;;;;6214002;23;20001;-86
2021/11/27 18:52:05;;;;;;;9.93;7.22;;;5.20;95.40;;;;;;6213951;23;20147;-85
2021/11/27 18:54:38;;;;;;;12.68;6.72;;;5.20;95.50;;;;;;6215023;23;20001;-84
2021/11/27 18:57:05;;;;;;;9.98;6.97;;;5.20;95.50;;;;;;6215020;23;20004;-85
2021/11/27 19:00:03;;;;;;;10.38;7.05;;;5.20;95.50;;;;;;6215925;23;20422;-89
2021/11/27 19:03:18;;;;;;;9.23;7.30;;;5.30;95.60;;;;;;6203768;23;20004;-91
2021/11/27 19:06:25;;;;;;;10.40;7.60;;;5.30;95.60;;;;;;6200330;23;20025;-89
2021/11/27 19:09:24;;;;;;;13.10;7.57;;;5.30;95.60;;;;;;6217573;23;20326;-88
2021/11/27 19:12:20;;;;;;;11.30;8.20;;;5.30;95.60;;;;;;6202843;23;20036;-90
2021/11/27 19:22:38;;;;;;;10.82;7.90;;;5.30;95.60;;;;;;6147821;23;20011;-89
2021/11/27 19:25:20;;;;;;;;;;;;;;;;;;;;;
2021/11/27 19:28:50;;;;;;;10.80;8.68;;;5.40;95.60;;;;;;6220017;23;20079;-90
2021/11/27 19:34:45;;;;;;;12.00;8.30;;;5.40;95.60;;;;;;5938285;24;20029;-89
2021/11/27 19:37:55;;;;;;;;;;;;;;;;;;;;;
2021/11/27 19:40:53;;;;;;;9.40;7.78;;;5.40;95.60;;;;;;6082446;23;20078;-89
2021/11/27 19:43:56;;;;;;;9.60;8.13;;;5.40;95.60;;;;;;6050832;23;20097;-91
2021/11/27 19:46:34;;;;;;;;;;;;;;;;;;;;;
2021/11/27 19:49:18;;;;;;;;;;;;;;;;;;;;;
2021/11/27 19:52:07;;;;;;;11.00;8.63;;;5.40;95.50;;;;;;6102018;23;20514;-89
2021/11/27 19:55:06;;;;;;;12.23;8.50;;;5.30;95.50;;;;;;6104458;23;20014;-87
2021/11/27 19:57:53;;;;;;;10.48;8.35;;;5.30;95.50;;;;;;6096312;23;20010;-88
2021/11/27 20:00:42;;;;;;;13.00;9.15;;;5.40;95.50;;;;;;6199962;23;20008;-89
2021/11/27 20:03:21;;;;;;;11.95;9.50;;;5.40;95.50;;;;;;6196056;23;20191;-89
2021/11/27 20:05:56;;;;;;;13.05;8.93;;;5.40;95.40;;;;;;6217682;23;20000;-90
2021/11/27 20:08:33;;;;;;;13.68;9.77;;;5.30;95.70;;;;;;6193916;23;20012;-89
2021/11/27 20:14:31;;;;;;;;;;;;;;;;;;;;;
2021/11/27 20:34:42;;;;;;;;;;;;;;;;;;;;;
2021/11/27 20:41:01;;;;;;;14.48;10.68;;;5.30;95.50;;;;;;6021385;23;20056;-91
2021/11/27 20:55:22;;;;;;;;;;;;;;;;;;;;;
2021/11/27 21:20:35;;;;;;;;;;;;;;;;;;;;;
2021/11/27 21:37:09;;;;;;;17.15;13.30;;;5.40;95.70;;;;;;5909282;24;20021;-92
2021/11/27 21:57:26;;;;;;;;;;;;;;;;;;;;;
2021/11/27 22:20:45;;;;;;;14.98;11.50;;;5.40;95.50;;;;;;6160309;23;20009;-92
2021/11/27 22:24:05;;;;;;;;;;;;;;;;;;;;;
2021/11/27 22:27:04;;;;;;;;;;;;;;;;;;;;;
2021/11/27 22:30:36;;;;;;;15.15;11.77;;;5.40;95.60;;;;;;6220855;23;20033;-94
2021/11/27 22:50:48;;;;;;;;;;;;;;;;;;;;;
2021/11/27 23:05:21;;;;;;;;;;;;;;;;;;;;;
